Time;durP1;ratioP1;P1;durP2;ratioP2;P2;SDS_P1;SDS_P2;PMS_P1;PMS_P2;Temp;Humidity;BMP_temperature;BMP_pressure;BME280_temperature;BME280_humidity;BME280_pressure;Samples;Min_cycle;Max_cycle;Signal;HPM_P1;HPM_P2
2023/02/19 00:01:21;;;;;;;0.50;0.50;;;10.60;99.90;;;;;;5074749;28;20491;-83
2023/02/19 00:03:50;;;;;;;0.50;0.40;;;10.60;99.90;;;;;;5074680;28;20430;-82
2023/02/19 00:06:18;;;;;;;0.40;0.30;;;10.70;99.90;;;;;;5074538;28;20477;-83
2023/02/19 00:08:45;;;;;;;0.73;0.33;;;10.70;99.90;;;;;;5074483;28;20477;-82
2023/02/19 00:11:14;;;;;;;0.60;0.60;;;10.60;99.90;;;;;;5074437;28;20524;-82
2023/02/19 00:13:43;;;;;;;0.50;0.40;;;10.60;99.90;;;;;;5074514;28;20453;-82
2023/02/19 00:16:14;;;;;;;0.30;0.30;;;10.60;99.90;;;;;;5074970;28;20461;-82
2023/02/19 00:18:42;;;;;;;0.73;0.53;;;10.50;99.90;;;;;;5073668;28;20426;-83
2023/02/19 00:21:09;;;;;;;1.90;0.43;;;10.50;99.90;;;;;;5074220;28;20963;-83
2023/02/19 00:23:36;;;;;;;0.30;0.30;;;10.50;99.90;;;;;;5074456;28;20457;-83
2023/02/19 00:26:04;;;;;;;0.40;0.33;;;10.50;99.90;;;;;;5074169;28;20453;-83
2023/02/19 00:28:31;;;;;;;0.50;0.33;;;10.50;99.90;;;;;;5073786;28;20836;-83
2023/02/19 00:31:05;;;;;;;0.40;0.30;;;10.40;99.90;;;;;;5074425;28;20450;-82
2023/02/19 00:33:31;;;;;;;0.30;0.30;;;10.50;99.90;;;;;;5074121;28;20437;-82
2023/02/19 00:36:01;;;;;;;0.83;0.50;;;10.40;99.90;;;;;;5074227;28;20450;-82
2023/02/19 00:38:28;;;;;;;0.40;0.33;;;10.50;99.90;;;;;;5073713;28;20960;-82
2023/02/19 00:40:55;;;;;;;0.40;0.30;;;10.50;99.90;;;;;;5074115;28;20456;-82
2023/02/19 00:43:21;;;;;;;0.77;0.50;;;10.50;99.90;;;;;;5073570;28;20811;-82
2023/02/19 00:45:48;;;;;;;0.50;0.40;;;10.50;99.90;;;;;;5073569;28;20449;-82
2023/02/19 00:48:15;;;;;;;0.90;0.50;;;10.40;99.90;;;;;;5073635;28;20489;-82
2023/02/19 00:50:41;;;;;;;0.50;0.30;;;10.50;99.90;;;;;;5073882;28;20843;-82
2023/02/19 00:53:10;;;;;;;0.50;0.50;;;10.50;99.90;;;;;;5073480;28;20452;-83
2023/02/19 00:55:36;;;;;;;0.80;0.50;;;10.40;99.90;;;;;;5073749;28;20446;-82
2023/02/19 00:58:03;;;;;;;1.37;0.57;;;10.40;99.90;;;;;;5073573;28;20469;-82
2023/02/19 01:00:32;;;;;;;0.40;0.40;;;10.40;99.90;;;;;;5073653;28;20821;-82
2023/02/19 01:02:59;;;;;;;0.30;0.30;;;10.40;99.90;;;;;;5073611;28;20445;-82
2023/02/19 01:05:25;;;;;;;2.60;0.70;;;10.40;99.90;;;;;;5073620;28;20446;-82
2023/02/19 01:07:53;;;;;;;0.50;0.50;;;10.40;99.90;;;;;;5073506;28;20480;-82
2023/02/19 01:10:21;;;;;;;0.53;0.40;;;10.30;99.90;;;;;;5073522;28;20487;-82
2023/02/19 01:12:48;;;;;;;0.30;0.30;;;10.30;99.90;;;;;;5073356;28;20829;-82
2023/02/19 01:15:14;;;;;;;0.60;0.40;;;10.20;99.90;;;;;;5073463;28;20445;-83
2023/02/19 01:17:41;;;;;;;0.57;0.40;;;10.20;99.90;;;;;;5073107;28;20469;-82
2023/02/19 01:20:09;;;;;;;0.40;0.40;;;10.30;99.90;;;;;;5073454;28;20446;-82
2023/02/19 01:22:35;;;;;;;0.30;0.20;;;10.20;99.90;;;;;;5073399;28;20453;-82
2023/02/19 01:25:02;;;;;;;0.40;0.30;;;10.20;99.90;;;;;;5073345;28;20454;-82
2023/02/19 01:27:30;;;;;;;0.67;0.50;;;10.20;99.90;;;;;;5073399;28;20481;-82
2023/02/19 01:29:57;;;;;;;0.40;0.40;;;10.20;99.90;;;;;;5073121;28;20485;-82
2023/02/19 01:32:24;;;;;;;0.30;0.30;;;10.20;99.90;;;;;;5073325;28;20449;-82
2023/02/19 01:34:50;;;;;;;0.40;0.40;;;10.10;99.90;;;;;;5073209;28;20460;-82
2023/02/19 01:37:17;;;;;;;0.50;0.50;;;10.10;99.90;;;;;;5072725;28;20485;-83
2023/02/19 01:39:44;;;;;;;0.50;0.40;;;10.10;99.90;;;;;;5072935;28;20933;-83
2023/02/19 01:42:15;;;;;;;0.50;0.33;;;10.10;99.90;;;;;;5073212;28;20450;-83
2023/02/19 01:45:20;;;;;;;0.47;0.30;;;10.20;99.90;;;;;;5073028;28;20437;-82
2023/02/19 01:47:54;;;;;;;0.40;0.33;;;10.20;99.90;;;;;;5073078;28;20469;-82
2023/02/19 01:50:21;;;;;;;1.27;0.60;;;10.20;99.90;;;;;;5072792;28;20996;-82
2023/02/19 01:52:48;;;;;;;0.50;0.50;;;10.20;99.90;;;;;;5072851;28;20984;-82
2023/02/19 01:55:15;;;;;;;0.67;0.33;;;10.20;99.90;;;;;;5072758;28;20945;-82
2023/02/19 01:57:46;;;;;;;0.80;0.40;;;10.20;99.90;;;;;;5073014;28;20469;-82
2023/02/19 02:00:15;;;;;;;0.50;0.43;;;10.10;99.90;;;;;;5073036;28;20441;-82
2023/02/19 02:02:48;;;;;;;0.50;0.50;;;10.10;99.90;;;;;;5072931;28;20450;-82
2023/02/19 02:05:24;;;;;;;0.50;0.50;;;10.20;99.90;;;;;;5073070;28;20434;-82
2023/02/19 02:10:36;;;;;;;0.40;0.40;;;10.10;99.90;;;;;;5072937;28;20460;-83
2023/02/19 02:13:03;;;;;;;0.53;0.53;;;10.10;99.90;;;;;;5072541;28;20454;-82
2023/02/19 02:15:39;;;;;;;1.43;0.93;;;10.10;99.90;;;;;;5072787;28;20927;-82
2023/02/19 02:18:15;;;;;;;0.60;0.40;;;10.10;99.90;;;;;;5072970;28;20468;-82
2023/02/19 02:21:14;;;;;;;0.60;0.60;;;10.10;99.90;;;;;;5072880;28;20440;-82
2023/02/19 02:23:52;;;;;;;0.50;0.37;;;10.10;99.90;;;;;;5072827;28;20450;-82
2023/02/19 02:26:34;;;;;;;0.40;0.30;;;10.10;99.90;;;;;;5072986;28;20433;-82
2023/02/19 02:29:26;;;;;;;1.37;0.40;;;10.00;99.90;;;;;;5072808;28;20454;-82
2023/02/19 02:31:58;;;;;;;0.30;0.30;;;10.00;99.90;;;;;;5072739;28;20452;-82
2023/02/19 02:34:28;;;;;;;0.50;0.47;;;10.00;99.90;;;;;;5072765;28;20440;-82
2023/02/19 02:36:57;;;;;;;0.40;0.30;;;9.90;99.90;;;;;;5072704;28;20486;-82
2023/02/19 02:39:26;;;;;;;2.13;0.50;;;10.00;99.90;;;;;;5072384;28;20963;-82
2023/02/19 02:44:37;;;;;;;0.53;0.40;;;9.90;99.90;;;;;;5075736;28;20441;-82
2023/02/19 02:47:39;;;;;;;0.40;0.40;;;9.90;99.90;;;;;;5075791;28;20473;-82
2023/02/19 02:50:04;;;;;;;0.40;0.40;;;9.90;99.90;;;;;;5075582;28;20556;-82
2023/02/19 02:55:18;;;;;;;0.50;0.33;;;9.80;99.90;;;;;;5076323;28;20504;-82
2023/02/19 02:57:45;;;;;;;0.67;0.40;;;9.80;99.90;;;;;;5075902;28;20480;-82
2023/02/19 03:00:13;;;;;;;0.40;0.33;;;9.80;99.90;;;;;;5075914;28;20456;-82
2023/02/19 03:02:42;;;;;;;1.23;0.60;;;9.80;99.90;;;;;;5075854;28;20450;-82
2023/02/19 03:08:06;;;;;;;0.50;0.40;;;9.80;99.90;;;;;;5075794;28;20944;-82
2023/02/19 03:10:38;;;;;;;1.07;0.50;;;9.80;99.90;;;;;;5075677;28;20476;-82
2023/02/19 03:21:28;;;;;;;0.40;0.30;;;9.90;99.90;;;;;;5068471;28;20802;-83
2023/02/19 03:26:43;;;;;;;0.60;0.60;;;9.90;99.90;;;;;;5075426;28;20457;-82
2023/02/19 03:29:24;;;;;;;0.40;0.30;;;9.80;99.90;;;;;;5075339;28;20478;-82
2023/02/19 03:31:53;;;;;;;1.37;0.80;;;9.80;99.90;;;;;;5075017;28;20816;-82
2023/02/19 03:34:25;;;;;;;0.30;0.30;;;9.70;99.90;;;;;;5075052;28;20430;-82
2023/02/19 03:36:58;;;;;;;0.50;0.40;;;9.70;99.90;;;;;;5074873;28;20522;-82
2023/02/19 03:39:24;;;;;;;0.40;0.40;;;9.60;99.90;;;;;;5074939;28;20430;-82
2023/02/19 03:42:00;;;;;;;0.40;0.40;;;9.50;99.90;;;;;;5074857;28;20434;-82
2023/02/19 03:44:40;;;;;;;0.40;0.30;;;9.60;99.90;;;;;;5075130;28;20429;-82
2023/02/19 03:47:14;;;;;;;0.60;0.50;;;9.60;99.90;;;;;;5075109;28;20476;-82
2023/02/19 03:49:47;;;;;;;0.30;0.30;;;9.60;99.90;;;;;;5074986;28;20469;-82
2023/02/19 03:52:18;;;;;;;0.30;0.30;;;9.60;99.90;;;;;;5074203;28;20434;-82
2023/02/19 03:54:50;;;;;;;0.40;0.40;;;9.70;99.90;;;;;;5074332;28;20441;-82
2023/02/19 03:57:24;;;;;;;0.40;0.30;;;9.60;99.90;;;;;;5074439;28;20523;-82
2023/02/19 03:59:56;;;;;;;0.40;0.37;;;9.60;99.90;;;;;;5074829;28;20433;-82
2023/02/19 04:02:28;;;;;;;0.40;0.30;;;9.70;99.90;;;;;;5074732;28;20426;-83
2023/02/19 04:05:02;;;;;;;0.40;0.30;;;9.60;99.90;;;;;;5074686;28;20774;-82
2023/02/19 04:07:34;;;;;;;0.30;0.30;;;9.60;99.90;;;;;;5074639;28;20999;-82
2023/02/19 04:10:01;;;;;;;0.30;0.30;;;9.60;99.90;;;;;;5074809;28;20462;-82
2023/02/19 04:12:29;;;;;;;0.40;0.30;;;9.50;99.90;;;;;;5074542;28;20453;-82
2023/02/19 04:15:01;;;;;;;0.30;0.30;;;9.50;99.90;;;;;;5074469;28;20449;-82
2023/02/19 04:17:32;;;;;;;0.30;0.30;;;9.50;99.90;;;;;;5074416;28;20462;-82
2023/02/19 04:20:03;;;;;;;0.30;0.30;;;9.50;99.90;;;;;;5074466;28;20414;-82
2023/02/19 04:22:30;;;;;;;0.30;0.30;;;9.50;99.90;;;;;;5074595;28;20933;-82
2023/02/19 04:24:57;;;;;;;0.30;0.30;;;9.60;99.90;;;;;;5074795;28;20450;-82
2023/02/19 04:27:24;;;;;;;0.40;0.33;;;9.60;99.90;;;;;;5073799;28;20989;-82
2023/02/19 04:29:51;;;;;;;0.30;0.30;;;9.60;99.90;;;;;;5074381;28;20490;-82
2023/02/19 04:32:18;;;;;;;0.40;0.30;;;9.60;99.90;;;;;;5074113;28;20447;-82
2023/02/19 04:34:44;;;;;;;0.40;0.30;;;9.60;99.90;;;;;;5073967;28;20892;-82
2023/02/19 04:37:13;;;;;;;0.30;0.30;;;9.60;99.90;;;;;;5073459;28;20996;-82
2023/02/19 04:39:39;;;;;;;0.30;0.30;;;9.60;99.90;;;;;;5074040;28;20448;-82
2023/02/19 04:42:06;;;;;;;0.30;0.27;;;9.60;99.90;;;;;;5073581;28;20815;-82
2023/02/19 04:44:33;;;;;;;0.30;0.30;;;9.60;99.90;;;;;;5074021;28;20441;-82
2023/02/19 04:47:01;;;;;;;0.30;0.20;;;9.60;99.90;;;;;;5073724;28;20813;-82
2023/02/19 04:49:27;;;;;;;0.30;0.20;;;9.60;99.90;;;;;;5073490;28;20484;-82
2023/02/19 04:51:54;;;;;;;0.30;0.30;;;9.50;99.90;;;;;;5073789;28;20457;-82
2023/02/19 04:54:22;;;;;;;0.30;0.20;;;9.50;99.90;;;;;;5073541;28;20434;-82
2023/02/19 04:56:49;;;;;;;0.30;0.20;;;9.50;99.90;;;;;;5073927;28;20473;-82
2023/02/19 04:59:16;;;;;;;0.30;0.20;;;9.60;99.90;;;;;;5073717;28;20458;-82
2023/02/19 05:01:43;;;;;;;0.30;0.30;;;9.60;99.90;;;;;;5073656;28;20461;-82
2023/02/19 05:04:10;;;;;;;0.40;0.30;;;9.50;99.90;;;;;;5073303;28;20453;-82
2023/02/19 05:06:37;;;;;;;0.30;0.23;;;9.50;99.90;;;;;;5073542;28;20479;-82
2023/02/19 05:09:03;;;;;;;0.30;0.30;;;9.60;99.90;;;;;;5073236;28;20822;-82
2023/02/19 05:11:31;;;;;;;0.30;0.30;;;9.50;99.90;;;;;;5073594;28;20453;-82
2023/02/19 05:13:58;;;;;;;1.33;0.50;;;9.60;99.90;;;;;;5073166;28;20446;-82
2023/02/19 05:16:25;;;;;;;0.30;0.20;;;9.60;99.90;;;;;;5073448;28;20468;-82
2023/02/19 05:18:52;;;;;;;0.30;0.20;;;9.50;99.90;;;;;;5073357;28;20438;-82
2023/02/19 05:21:19;;;;;;;0.30;0.20;;;9.60;99.90;;;;;;5073452;28;20434;-82
2023/02/19 05:23:46;;;;;;;0.30;0.20;;;9.60;99.90;;;;;;5073437;28;20463;-82
2023/02/19 05:26:15;;;;;;;0.30;0.20;;;9.60;99.90;;;;;;5072954;28;20441;-82
2023/02/19 05:28:44;;;;;;;0.30;0.20;;;9.50;99.90;;;;;;5073339;28;20500;-82
2023/02/19 05:31:12;;;;;;;0.30;0.20;;;9.50;99.90;;;;;;5072957;28;20489;-82
2023/02/19 05:33:40;;;;;;;0.30;0.20;;;9.50;99.90;;;;;;5073508;28;20449;-83
2023/02/19 05:36:09;;;;;;;0.50;0.50;;;9.50;99.90;;;;;;5073015;28;20457;-83
2023/02/19 05:38:37;;;;;;;0.93;0.30;;;9.50;99.90;;;;;;5073104;28;20441;-82
2023/02/19 05:41:08;;;;;;;0.30;0.20;;;9.40;99.90;;;;;;5072907;28;20441;-82
2023/02/19 05:43:34;;;;;;;0.30;0.20;;;9.50;99.90;;;;;;5073144;28;20461;-82
2023/02/19 05:46:02;;;;;;;0.30;0.20;;;9.50;99.90;;;;;;5073179;28;20446;-82
2023/02/19 05:48:29;;;;;;;0.30;0.20;;;9.50;99.90;;;;;;5073168;28;20778;-82
2023/02/19 05:51:02;;;;;;;0.30;0.20;;;9.50;99.90;;;;;;5073039;28;20482;-82
2023/02/19 05:53:28;;;;;;;0.30;0.20;;;9.50;99.90;;;;;;5073964;28;20440;-82
2023/02/19 05:55:55;;;;;;;0.30;0.20;;;9.50;99.90;;;;;;5073061;28;20921;-82
2023/02/19 05:58:22;;;;;;;0.30;0.30;;;9.50;99.90;;;;;;5072711;28;20988;-82
2023/02/19 06:00:49;;;;;;;0.37;0.27;;;9.40;99.90;;;;;;5073062;28;20456;-82
2023/02/19 06:03:17;;;;;;;0.30;0.20;;;9.40;99.90;;;;;;5073862;28;20800;-82
2023/02/19 06:05:44;;;;;;;0.40;0.30;;;9.40;99.90;;;;;;5073046;28;20446;-82
2023/02/19 06:08:13;;;;;;;0.30;0.20;;;9.40;99.90;;;;;;5072962;28;20492;-83
2023/02/19 06:10:40;;;;;;;0.30;0.20;;;9.50;99.90;;;;;;5072845;28;20500;-83
2023/02/19 06:13:07;;;;;;;0.30;0.30;;;9.50;99.90;;;;;;5073087;28;20503;-83
2023/02/19 06:15:33;;;;;;;0.30;0.20;;;9.40;99.90;;;;;;5073111;28;20804;-83
2023/02/19 06:18:01;;;;;;;0.97;0.30;;;9.50;99.90;;;;;;5077617;28;20477;-82
2023/02/19 06:20:29;;;;;;;0.37;0.27;;;9.40;99.90;;;;;;5077422;28;20453;-82
2023/02/19 06:22:56;;;;;;;0.30;0.20;;;9.30;99.90;;;;;;5076275;28;20812;-82
2023/02/19 06:25:22;;;;;;;0.30;0.20;;;9.20;99.90;;;;;;5076570;28;20438;-82
2023/02/19 06:27:49;;;;;;;0.30;0.30;;;9.10;99.90;;;;;;5076470;28;20476;-82
2023/02/19 06:30:16;;;;;;;0.30;0.20;;;9.10;99.90;;;;;;5076055;28;21031;-82
2023/02/19 06:32:43;;;;;;;0.30;0.20;;;9.10;99.90;;;;;;5076762;28;20440;-82
2023/02/19 06:35:09;;;;;;;0.30;0.20;;;9.10;99.90;;;;;;5076004;28;20941;-82
2023/02/19 06:37:37;;;;;;;0.30;0.20;;;9.10;99.90;;;;;;5076115;28;20473;-82
2023/02/19 06:40:05;;;;;;;0.30;0.20;;;9.10;99.90;;;;;;5076326;28;20438;-82
2023/02/19 06:42:32;;;;;;;0.30;0.20;;;9.10;99.90;;;;;;5076259;28;20524;-82
2023/02/19 06:44:59;;;;;;;0.30;0.30;;;9.10;99.90;;;;;;5076289;28;20445;-83
2023/02/19 06:47:30;;;;;;;0.40;0.40;;;9.10;99.90;;;;;;5076076;28;20547;-83
2023/02/19 06:49:56;;;;;;;0.30;0.20;;;9.10;99.90;;;;;;5076320;28;20472;-83
2023/02/19 06:52:23;;;;;;;0.30;0.20;;;9.20;99.90;;;;;;5076029;28;20472;-82
2023/02/19 06:54:51;;;;;;;0.30;0.20;;;9.20;99.90;;;;;;5076301;28;20434;-82
2023/02/19 06:57:18;;;;;;;0.30;0.20;;;9.10;99.90;;;;;;5075607;28;20972;-82
2023/02/19 06:59:45;;;;;;;0.30;0.20;;;9.10;99.90;;;;;;5075950;28;20858;-83
2023/02/19 07:02:12;;;;;;;0.30;0.20;;;9.00;99.90;;;;;;5075595;28;20949;-83
2023/02/19 07:04:39;;;;;;;0.30;0.20;;;9.10;99.90;;;;;;5075916;28;20426;-82
2023/02/19 07:07:06;;;;;;;0.30;0.20;;;9.10;99.90;;;;;;5075757;28;20466;-82
2023/02/19 07:09:32;;;;;;;0.30;0.20;;;9.10;99.90;;;;;;5075664;28;20449;-82
2023/02/19 07:12:00;;;;;;;0.30;0.20;;;9.10;99.90;;;;;;5075660;28;20481;-83
2023/02/19 07:14:28;;;;;;;0.40;0.30;;;9.20;99.90;;;;;;5075671;28;20442;-83
2023/02/19 07:16:55;;;;;;;0.30;0.30;;;9.20;99.90;;;;;;5075213;28;20478;-83
2023/02/19 07:19:22;;;;;;;0.40;0.30;;;9.20;99.90;;;;;;5075874;28;20441;-83
2023/02/19 07:21:48;;;;;;;0.30;0.20;;;9.20;99.90;;;;;;5075538;28;20811;-82
2023/02/19 07:24:15;;;;;;;0.30;0.20;;;9.20;99.90;;;;;;5075770;28;20454;-82
2023/02/19 07:26:42;;;;;;;0.30;0.20;;;9.10;99.90;;;;;;5075199;28;20480;-82
2023/02/19 07:29:10;;;;;;;0.30;0.20;;;9.20;99.90;;;;;;5075573;28;20447;-82
2023/02/19 07:31:37;;;;;;;0.30;0.23;;;9.20;99.90;;;;;;5075351;28;20485;-82
2023/02/19 07:34:04;;;;;;;0.30;0.30;;;9.20;99.90;;;;;;5075335;28;20448;-82
2023/02/19 07:36:30;;;;;;;0.50;0.30;;;9.30;99.90;;;;;;5074951;28;20477;-82
2023/02/19 07:39:00;;;;;;;0.30;0.20;;;9.20;99.90;;;;;;5075310;28;20434;-82
2023/02/19 07:41:27;;;;;;;0.30;0.30;;;9.20;99.90;;;;;;5074867;28;20446;-83
2023/02/19 07:43:54;;;;;;;0.30;0.20;;;9.20;99.90;;;;;;5075186;28;20442;-82
2023/02/19 07:46:23;;;;;;;0.30;0.30;;;9.20;99.90;;;;;;5074747;28;20438;-82
2023/02/19 07:48:50;;;;;;;0.30;0.30;;;9.20;99.90;;;;;;5075025;28;20449;-82
2023/02/19 07:51:18;;;;;;;0.30;0.20;;;9.10;99.90;;;;;;5074912;28;20485;-82
2023/02/19 07:53:46;;;;;;;0.30;0.20;;;9.10;99.90;;;;;;5074979;28;20456;-83
2023/02/19 07:56:13;;;;;;;0.40;0.30;;;9.10;99.90;;;;;;5074765;28;20453;-83
2023/02/19 07:58:40;;;;;;;2.40;0.67;;;9.10;99.90;;;;;;5074899;28;20452;-82
2023/02/19 08:01:09;;;;;;;0.40;0.30;;;9.10;99.90;;;;;;5074990;28;20453;-83
2023/02/19 08:03:36;;;;;;;0.30;0.30;;;9.20;99.90;;;;;;5074736;28;20446;-83
2023/02/19 08:06:03;;;;;;;0.30;0.20;;;9.20;99.90;;;;;;5074668;28;20499;-82
2023/02/19 08:08:30;;;;;;;0.30;0.30;;;9.20;99.90;;;;;;5074571;28;20461;-82
2023/02/19 08:13:43;;;;;;;0.30;0.30;;;9.20;99.90;;;;;;5074644;28;20892;-82
2023/02/19 08:16:14;;;;;;;0.60;0.60;;;9.20;99.90;;;;;;5074351;28;20453;-82
2023/02/19 08:18:43;;;;;;;1.30;0.30;;;9.20;99.90;;;;;;5074461;28;20437;-82
2023/02/19 08:21:10;;;;;;;0.40;0.30;;;9.10;99.90;;;;;;5075125;28;20452;-82
2023/02/19 08:23:37;;;;;;;0.33;0.27;;;9.10;99.90;;;;;;5074024;28;20940;-82
2023/02/19 08:26:04;;;;;;;0.60;0.40;;;8.90;99.90;;;;;;5074160;28;20449;-82
2023/02/19 08:28:32;;;;;;;0.40;0.30;;;8.90;99.90;;;;;;5073967;28;20948;-82
2023/02/19 08:31:00;;;;;;;0.50;0.40;;;8.80;99.90;;;;;;5073990;28;20492;-82
2023/02/19 08:33:27;;;;;;;0.30;0.30;;;8.80;99.90;;;;;;5074148;28;20450;-82
2023/02/19 08:35:56;;;;;;;0.30;0.20;;;8.80;99.90;;;;;;5074249;28;20461;-82
2023/02/19 08:38:23;;;;;;;0.70;0.33;;;8.80;99.90;;;;;;5073410;28;20492;-82
2023/02/19 08:40:49;;;;;;;0.40;0.30;;;8.90;99.90;;;;;;5073441;28;20937;-81
2023/02/19 08:43:18;;;;;;;0.40;0.30;;;8.90;99.90;;;;;;5074475;28;20450;-82
2023/02/19 08:45:47;;;;;;;0.30;0.30;;;8.90;99.90;;;;;;5073885;28;20503;-82
2023/02/19 08:48:13;;;;;;;0.40;0.40;;;9.00;99.90;;;;;;5073452;28;20834;-82
2023/02/19 08:50:40;;;;;;;0.70;0.60;;;9.10;99.90;;;;;;5073466;28;20832;-82
2023/02/19 08:53:08;;;;;;;0.50;0.40;;;9.10;99.90;;;;;;5073766;28;20449;-82
2023/02/19 08:55:37;;;;;;;0.40;0.30;;;9.20;99.90;;;;;;5073708;28;20457;-82
2023/02/19 08:58:04;;;;;;;0.40;0.30;;;9.30;99.90;;;;;;5073653;28;20817;-82
2023/02/19 09:00:31;;;;;;;1.00;0.40;;;9.40;99.90;;;;;;5073635;28;20460;-82
2023/02/19 09:02:58;;;;;;;0.30;0.20;;;9.60;99.90;;;;;;5073666;28;20437;-82
2023/02/19 09:05:25;;;;;;;0.40;0.30;;;9.80;99.90;;;;;;5073635;28;20457;-82
2023/02/19 09:07:51;;;;;;;0.40;0.30;;;10.00;99.90;;;;;;5073449;28;20842;-81
2023/02/19 09:10:20;;;;;;;0.30;0.20;;;10.20;99.90;;;;;;5073201;28;20971;-81
2023/02/19 09:12:46;;;;;;;0.40;0.30;;;10.30;99.90;;;;;;5073569;28;20473;-81
2023/02/19 09:15:13;;;;;;;0.40;0.30;;;10.20;99.90;;;;;;5073445;28;20468;-81
2023/02/19 09:17:40;;;;;;;0.30;0.30;;;10.20;99.90;;;;;;5073090;28;20991;-81
2023/02/19 09:20:08;;;;;;;0.40;0.40;;;10.00;99.90;;;;;;5073083;28;20460;-81
2023/02/19 09:22:34;;;;;;;0.43;0.30;;;10.00;99.90;;;;;;5073440;28;20445;-81
2023/02/19 09:25:01;;;;;;;0.40;0.30;;;10.00;99.90;;;;;;5073398;28;20499;-81
2023/02/19 09:27:31;;;;;;;0.30;0.30;;;10.00;99.90;;;;;;5072982;28;20973;-81
2023/02/19 09:29:57;;;;;;;0.30;0.20;;;10.10;99.90;;;;;;5073392;28;20437;-81
2023/02/19 09:32:24;;;;;;;0.30;0.30;;;10.10;99.90;;;;;;5073218;28;20466;-81
2023/02/19 09:34:51;;;;;;;0.30;0.30;;;10.20;99.90;;;;;;5073298;28;20448;-81
2023/02/19 09:37:18;;;;;;;0.30;0.20;;;10.20;99.90;;;;;;5072790;28;20488;-81
2023/02/19 09:39:44;;;;;;;0.47;0.27;;;10.20;99.90;;;;;;5073215;28;20453;-81
2023/02/19 09:42:17;;;;;;;0.30;0.30;;;10.10;99.90;;;;;;5073333;28;20426;-81
2023/02/19 09:44:48;;;;;;;0.40;0.40;;;10.10;99.90;;;;;;5073818;28;20436;-81
2023/02/19 09:47:19;;;;;;;0.40;0.30;;;10.00;99.90;;;;;;5073126;28;20556;-81
2023/02/19 09:49:50;;;;;;;3.50;0.30;;;9.90;99.90;;;;;;5073281;28;20430;-81
2023/02/19 09:52:24;;;;;;;1.13;0.40;;;9.80;99.90;;;;;;5076854;28;20806;-81
2023/02/19 09:54:56;;;;;;;0.40;0.30;;;9.70;99.90;;;;;;5076847;28;20979;-81
2023/02/19 09:57:24;;;;;;;0.30;0.30;;;9.70;99.90;;;;;;5077155;28;20469;-81
2023/02/19 09:59:56;;;;;;;0.33;0.27;;;9.60;99.90;;;;;;5076856;28;20478;-81
2023/02/19 10:02:24;;;;;;;1.23;0.40;;;9.60;99.90;;;;;;5077199;28;20437;-81
2023/02/19 10:04:52;;;;;;;0.47;0.30;;;9.60;99.90;;;;;;5076850;28;20449;-81
2023/02/19 10:07:22;;;;;;;0.30;0.30;;;9.60;99.90;;;;;;5076793;28;20469;-81
2023/02/19 10:09:54;;;;;;;0.30;0.30;;;9.70;99.90;;;;;;5076506;28;20449;-81
2023/02/19 10:12:27;;;;;;;0.30;0.20;;;9.70;99.90;;;;;;5076663;28;20469;-81
2023/02/19 10:15:01;;;;;;;0.40;0.30;;;9.60;99.90;;;;;;5076732;28;20445;-81
2023/02/19 10:17:33;;;;;;;0.40;0.30;;;9.70;99.90;;;;;;5076219;28;21006;-81
2023/02/19 10:20:03;;;;;;;0.30;0.30;;;9.70;99.90;;;;;;5076425;28;20426;-81
2023/02/19 10:22:30;;;;;;;0.40;0.40;;;9.70;99.90;;;;;;5076570;28;20448;-81
2023/02/19 10:24:57;;;;;;;0.40;0.33;;;9.70;99.90;;;;;;5076208;28;20979;-81
2023/02/19 10:27:27;;;;;;;0.40;0.30;;;9.80;99.90;;;;;;5076100;28;20981;-81
2023/02/19 10:29:55;;;;;;;0.30;0.30;;;9.80;99.90;;;;;;5076384;28;20468;-81
2023/02/19 10:32:25;;;;;;;0.30;0.20;;;9.70;99.90;;;;;;5075970;28;20857;-82
2023/02/19 10:35:07;;;;;;;0.30;0.20;;;9.70;99.90;;;;;;5076544;28;20456;-81
2023/02/19 10:37:35;;;;;;;1.70;0.40;;;9.70;99.90;;;;;;5075908;28;21011;-81
2023/02/19 10:40:02;;;;;;;0.50;0.30;;;9.70;99.90;;;;;;5075843;28;20441;-81
2023/02/19 10:42:29;;;;;;;0.30;0.30;;;9.80;99.90;;;;;;5075964;28;20448;-81
2023/02/19 10:45:00;;;;;;;0.30;0.30;;;9.80;99.90;;;;;;5076360;28;20445;-81
2023/02/19 10:47:30;;;;;;;0.40;0.30;;;9.90;99.90;;;;;;5075857;28;20992;-81
2023/02/19 10:49:59;;;;;;;0.40;0.30;;;10.10;99.90;;;;;;5076086;28;20533;-81
2023/02/19 10:52:28;;;;;;;2.67;0.30;;;10.20;99.90;;;;;;5076070;28;20481;-81
2023/02/19 10:54:57;;;;;;;0.40;0.30;;;10.20;99.90;;;;;;5076030;28;20957;-81
2023/02/19 10:57:33;;;;;;;0.30;0.30;;;10.40;99.90;;;;;;5076174;28;20469;-81
2023/02/19 11:00:13;;;;;;;0.30;0.30;;;10.60;99.90;;;;;;5075985;28;20440;-81
2023/02/19 11:02:39;;;;;;;1.43;0.30;;;10.70;99.90;;;;;;5075022;28;20913;-82
2023/02/19 11:05:18;;;;;;;0.37;0.27;;;10.70;99.90;;;;;;5075899;28;20453;-82
2023/02/19 11:07:47;;;;;;;0.50;0.30;;;10.90;99.90;;;;;;5076385;28;20510;-81
2023/02/19 11:10:25;;;;;;;0.40;0.30;;;11.10;99.90;;;;;;5075432;28;20481;-81
2023/02/19 11:12:55;;;;;;;0.30;0.30;;;11.30;99.90;;;;;;5075701;28;20465;-81
2023/02/19 11:15:27;;;;;;;1.80;0.60;;;11.40;99.90;;;;;;5075768;28;20437;-81
2023/02/19 11:17:59;;;;;;;0.30;0.30;;;11.50;99.90;;;;;;5075633;28;20476;-81
2023/02/19 11:20:28;;;;;;;0.40;0.30;;;11.50;99.90;;;;;;5075673;28;20477;-81
2023/02/19 11:22:59;;;;;;;7.50;0.60;;;11.50;99.90;;;;;;5075535;28;20454;-82
2023/02/19 11:25:26;;;;;;;0.30;0.30;;;11.60;99.90;;;;;;5075567;28;20483;-81
2023/02/19 11:27:55;;;;;;;0.30;0.30;;;11.40;99.90;;;;;;5075089;28;20469;-81
2023/02/19 11:30:45;;;;;;;0.30;0.30;;;11.30;99.90;;;;;;5075339;28;20452;-82
2023/02/19 11:33:35;;;;;;;0.40;0.33;;;11.30;99.90;;;;;;5070848;28;20508;-82
2023/02/19 11:36:27;;;;;;;0.40;0.30;;;11.10;99.90;;;;;;5060439;28;20458;-82
2023/02/19 11:38:55;;;;;;;0.30;0.30;;;11.10;99.90;;;;;;5075398;28;20426;-82
2023/02/19 11:41:43;;;;;;;0.30;0.27;;;11.10;99.90;;;;;;5075186;28;20445;-82
2023/02/19 11:44:24;;;;;;;0.40;0.30;;;11.00;99.90;;;;;;5075165;28;20430;-82
2023/02/19 11:47:01;;;;;;;0.40;0.40;;;10.90;99.90;;;;;;5075095;28;20466;-82
2023/02/19 11:49:41;;;;;;;0.60;0.60;;;11.00;99.90;;;;;;5075116;28;20425;-82
2023/02/19 11:52:24;;;;;;;0.40;0.30;;;10.90;99.90;;;;;;5074842;28;20484;-82
2023/02/19 11:54:56;;;;;;;0.40;0.30;;;10.90;99.90;;;;;;5074955;28;20434;-82
2023/02/19 11:57:39;;;;;;;0.90;0.30;;;10.90;99.90;;;;;;5074795;28;20560;-82
2023/02/19 12:00:24;;;;;;;0.30;0.20;;;11.00;99.90;;;;;;5074925;28;20429;-82
2023/02/19 12:03:27;;;;;;;0.40;0.30;;;11.00;99.90;;;;;;5075066;28;20814;-82
2023/02/19 12:06:12;;;;;;;0.40;0.30;;;11.10;99.90;;;;;;5072010;28;20968;-82
2023/02/19 12:09:11;;;;;;;0.30;0.30;;;11.10;99.90;;;;;;5074401;28;20905;-82
2023/02/19 12:11:52;;;;;;;0.30;0.20;;;11.00;99.90;;;;;;5072235;28;20481;-82
2023/02/19 12:14:43;;;;;;;0.30;0.30;;;11.00;99.90;;;;;;5074038;28;20429;-82
2023/02/19 12:17:21;;;;;;;0.40;0.30;;;11.00;99.90;;;;;;5074416;28;20480;-82
2023/02/19 12:20:00;;;;;;;0.30;0.20;;;11.10;99.90;;;;;;5074449;28;20434;-82
2023/02/19 12:22:30;;;;;;;0.60;0.40;;;11.10;99.90;;;;;;5074398;28;20426;-82
2023/02/19 12:25:32;;;;;;;0.40;0.30;;;11.20;99.90;;;;;;5074905;28;20430;-82
2023/02/19 12:28:16;;;;;;;1.27;0.60;;;11.20;99.90;;;;;;5073898;28;20460;-82
2023/02/19 12:31:12;;;;;;;0.30;0.30;;;11.30;99.90;;;;;;5074264;28;20444;-82
2023/02/19 12:34:00;;;;;;;0.30;0.30;;;11.30;99.90;;;;;;5074110;28;20486;-83
2023/02/19 12:36:37;;;;;;;0.30;0.30;;;11.50;99.90;;;;;;5073784;28;20891;-82
2023/02/19 12:39:14;;;;;;;1.63;0.30;;;11.70;99.90;;;;;;5074114;28;20433;-82
2023/02/19 12:41:45;;;;;;;0.30;0.30;;;11.80;99.90;;;;;;5074001;28;20441;-82
2023/02/19 12:44:16;;;;;;;0.57;0.40;;;12.00;99.90;;;;;;5073786;28;20433;-82
2023/02/19 12:46:48;;;;;;;0.70;0.70;;;12.20;99.90;;;;;;5073827;28;20469;-82
2023/02/19 12:49:22;;;;;;;0.60;0.30;;;12.40;99.90;;;;;;5073808;28;20446;-82
2023/02/19 12:51:54;;;;;;;0.30;0.30;;;12.50;99.90;;;;;;5073806;28;20457;-82
2023/02/19 12:54:26;;;;;;;0.40;0.40;;;12.40;99.90;;;;;;5073904;28;20434;-82
2023/02/19 12:57:00;;;;;;;0.40;0.27;;;12.50;99.90;;;;;;5073721;28;20848;-82
2023/02/19 12:59:32;;;;;;;0.30;0.20;;;12.50;99.90;;;;;;5073556;28;20406;-82
2023/02/19 13:02:09;;;;;;;0.30;0.23;;;12.50;99.90;;;;;;5073391;28;20905;-82
2023/02/19 13:04:42;;;;;;;0.30;0.27;;;12.70;99.90;;;;;;5073900;28;20426;-82
2023/02/19 13:07:13;;;;;;;0.40;0.30;;;12.70;99.90;;;;;;5073537;28;20476;-82
2023/02/19 13:09:47;;;;;;;0.40;0.40;;;12.90;99.90;;;;;;5073617;28;20430;-82
2023/02/19 13:12:21;;;;;;;0.30;0.30;;;13.00;99.90;;;;;;5073519;28;20476;-82
2023/02/19 13:14:51;;;;;;;0.30;0.30;;;13.20;99.90;;;;;;5073568;28;20438;-82
2023/02/19 13:17:25;;;;;;;1.23;0.30;;;13.30;99.90;;;;;;5073488;28;20681;-82
2023/02/19 13:19:56;;;;;;;0.40;0.30;;;13.50;99.90;;;;;;5073754;28;20434;-80
2023/02/19 13:25:18;;;;;;;0.30;0.30;;;13.40;99.90;;;;;;5077784;28;20401;-81
2023/02/19 13:28:07;;;;;;;0.50;0.30;;;13.40;99.90;;;;;;5077270;28;21011;-81
2023/02/19 13:30:53;;;;;;;0.30;0.30;;;13.20;99.90;;;;;;5073377;28;20414;-82
2023/02/19 13:33:34;;;;;;;0.30;0.30;;;12.90;99.90;;;;;;5073351;28;20472;-82
2023/02/19 13:36:13;;;;;;;0.30;0.30;;;12.60;99.90;;;;;;5073222;28;20957;-81
2023/02/19 13:38:42;;;;;;;0.30;0.30;;;12.40;99.90;;;;;;5073104;28;20503;-81